Apollon D — A8QD6 — position and weather

sailwx.info

Track history (hours):
 
Tides and Currents Weather Stations Pressure Air Temp Water Temp Dewpoint Dewpoint Depression Visibility Wind Speed Wind Dir Waves Ship Positions

Apollon D

Last reported at 2017-Dec-11 05:06 UTC. Time now 2017-Dec-13 12:47 UTC.
Position N 25°46' E 121°46'.

Length 209 m; draft 10.4 m.

Type: Ship (hazmat cat A). MMSI: 636091614.

Date/timePositionNaut miles runAvg speedWind from/ knotsBaromVisibWave heightAir tempDewpointWater temp
2017-Dec-11 05:06N 25°46' E 121°46'114.6
2017-Dec-11 05:00N 25°46' E 121°45'714.9
2017-Dec-11 04:30N 25°42' E 121°38'1915.0
2017-Dec-11 03:13N 25°33' E 121°19'715.4
2017-Dec-11 02:46N 25°28' E 121°14'415.5
2017-Dec-11 02:30N 25°25' E 121°11'815.6
2017-Dec-11 02:00N 25°21' E 121°03'815.3
2017-Dec-11 01:30N 25°17' E 120°56'3015.8
2017-Dec-10 23:35N 24°60' E 120°28'215.8
2017-Dec-10 23:27N 24°59' E 120°26'18018.4
2017-Dec-10 13:40N 23°20' E 117°41'318.7
2017-Dec-10 13:30N 23°18' E 117°38'918.8
2017-Dec-10 13:00N 23°14' E 117°29'1019.0
2017-Dec-10 12:30N 23°08' E 117°21'  
Track history (hours):
 
Tides and Currents Weather Stations Pressure Air Temp Water Temp Dewpoint Dewpoint Depression Visibility Wind Speed Wind Dir Waves Ship Positions

Apollon D

Last reported at 2017-Dec-11 05:06 UTC. Time now 2017-Dec-13 12:47 UTC.
Position N 25°46' E 121°46'.

Length 209 m; draft 10.4 m.

Type: Ship (hazmat cat A). MMSI: 636091614.

Date/timePositionNaut miles runAvg speedWind from/ knotsBaromVisibWave heightAir tempDewpointWater temp
2017-Dec-11 05:06N 25°46' E 121°46'114.6
2017-Dec-11 05:00N 25°46' E 121°45'714.9
2017-Dec-11 04:30N 25°42' E 121°38'1915.0
2017-Dec-11 03:13N 25°33' E 121°19'715.4
2017-Dec-11 02:46N 25°28' E 121°14'415.5
2017-Dec-11 02:30N 25°25' E 121°11'815.6
2017-Dec-11 02:00N 25°21' E 121°03'815.3
2017-Dec-11 01:30N 25°17' E 120°56'3015.8
2017-Dec-10 23:35N 24°60' E 120°28'215.8
2017-Dec-10 23:27N 24°59' E 120°26'18018.4
2017-Dec-10 13:40N 23°20' E 117°41'318.7
2017-Dec-10 13:30N 23°18' E 117°38'918.8
2017-Dec-10 13:00N 23°14' E 117°29'1019.0
2017-Dec-10 12:30N 23°08' E 117°21'  

Dump ship's entire track history